createdAt,value
2023-02-20T00:02:20.857Z,26.33
2023-02-20T00:07:25.704Z,25.92
2023-02-20T00:12:33.038Z,27.97
2023-02-20T00:17:36.430Z,26.07
2023-02-20T00:22:43.354Z,24.72
2023-02-20T00:27:49.509Z,24.64
2023-02-20T00:32:53.950Z,26.89
2023-02-20T00:37:59.446Z,27.50
2023-02-20T00:43:07.820Z,27.64
2023-02-20T00:48:13.643Z,28.53
2023-02-20T00:53:20.834Z,23.09
2023-02-20T00:58:26.384Z,21.58
2023-02-20T01:03:32.441Z,23.43
2023-02-20T01:08:37.574Z,23.81
2023-02-20T01:13:43.563Z,29.58
2023-02-20T01:18:49.816Z,26.06
2023-02-20T01:23:55.665Z,27.99
2023-02-20T01:28:59.823Z,27.47
2023-02-20T01:34:03.361Z,26.90
2023-02-20T01:39:10.810Z,24.80
2023-02-20T01:44:18.840Z,27.46
2023-02-20T01:49:26.874Z,27.11
2023-02-20T01:54:33.136Z,24.74
2023-02-20T01:59:43.538Z,27.11
2023-02-20T02:04:50.802Z,26.53
2023-02-20T02:10:02.487Z,24.70
2023-02-20T02:15:14.254Z,28.23
2023-02-20T02:20:41.294Z,25.41
2023-02-20T02:25:56.819Z,23.84
2023-02-20T02:31:23.651Z,20.73
2023-02-20T02:36:42.955Z,33.24
2023-02-20T02:41:55.509Z,24.96
2023-02-20T02:47:04.494Z,25.35
2023-02-20T02:52:10.865Z,25.59
2023-02-20T02:57:21.213Z,26.82
2023-02-20T03:02:32.120Z,23.09
2023-02-20T03:07:41.874Z,18.00
2023-02-20T03:12:50.536Z,19.65
2023-02-20T03:18:13.240Z,32.71
2023-02-20T03:23:23.847Z,17.84
2023-02-20T03:28:34.499Z,17.36
2023-02-20T03:34:04.014Z,10.80
2023-02-20T03:39:30.444Z,7.36
2023-02-20T03:44:38.365Z,7.41
2023-02-20T03:49:50.611Z,7.72
2023-02-20T03:54:55.929Z,7.54
2023-02-20T04:00:05.147Z,7.24
2023-02-20T04:05:22.964Z,6.93
2023-02-20T04:10:31.352Z,6.83
2023-02-20T04:15:35.756Z,7.32
2023-02-20T04:20:41.823Z,6.48
2023-02-20T04:26:05.641Z,6.61
2023-02-20T04:31:14.270Z,6.33
2023-02-20T04:36:18.017Z,8.16
2023-02-20T04:41:23.093Z,18.65
2023-02-20T04:46:27.109Z,17.19
2023-02-20T04:51:30.664Z,20.05
2023-02-20T04:56:36.341Z,21.29
2023-02-20T05:01:48.248Z,19.79
2023-02-20T05:06:53.303Z,19.00
2023-02-20T05:11:59.142Z,21.11
2023-02-20T05:17:05.210Z,22.47
2023-02-20T05:22:23.189Z,19.01
2023-02-20T05:27:28.572Z,21.18
2023-02-20T05:32:32.509Z,20.02
2023-02-20T05:37:36.073Z,16.24
2023-02-20T05:42:42.334Z,23.43
2023-02-20T05:47:45.785Z,18.66
2023-02-20T05:52:51.815Z,19.31
2023-02-20T05:57:59.590Z,18.81
2023-02-20T06:03:03.041Z,18.73
2023-02-20T06:08:09.162Z,18.91
2023-02-20T06:13:14.082Z,18.90
2023-02-20T06:18:20.570Z,25.58
2023-02-20T06:23:26.428Z,28.23
2023-02-20T06:28:34.038Z,22.83
2023-02-20T06:33:38.264Z,24.69
2023-02-20T06:38:41.729Z,24.34
2023-02-20T06:43:49.272Z,26.98
2023-02-20T06:48:56.249Z,22.10
2023-02-20T06:53:59.864Z,23.29
2023-02-20T06:59:06.050Z,22.92
2023-02-20T07:04:16.292Z,21.26
2023-02-20T07:09:20.350Z,28.31
2023-02-20T07:14:25.717Z,24.04
2023-02-20T07:19:29.184Z,24.38
2023-02-20T07:24:36.939Z,22.84
2023-02-20T07:29:42.249Z,20.92
2023-02-20T07:35:03.006Z,23.97
2023-02-20T07:40:13.164Z,21.49
2023-02-20T07:45:18.020Z,22.42
2023-02-20T07:50:23.833Z,22.17
2023-02-20T07:55:29.597Z,23.71
2023-02-20T08:00:34.583Z,24.58
2023-02-20T08:05:48.959Z,22.17
2023-02-20T08:11:03.499Z,21.27
2023-02-20T08:16:13.756Z,20.87
2023-02-20T08:21:17.567Z,21.89
2023-02-20T08:26:23.645Z,20.69
2023-02-20T08:31:32.442Z,19.02
2023-02-20T08:36:36.652Z,16.95
2023-02-20T08:41:43.460Z,16.07
2023-02-20T08:46:48.762Z,11.56
2023-02-20T08:51:56.192Z,9.81
2023-02-20T08:57:01.900Z,9.33
2023-02-20T09:02:07.071Z,12.91
2023-02-20T09:07:13.408Z,9.41
2023-02-20T09:12:16.834Z,12.12
2023-02-20T09:17:24.127Z,11.71
2023-02-20T09:22:28.095Z,13.72
2023-02-20T09:27:34.506Z,11.22
2023-02-20T09:32:39.621Z,11.30
2023-02-20T09:37:44.139Z,11.06
2023-02-20T09:42:55.119Z,12.28
2023-02-20T09:48:08.983Z,11.85
2023-02-20T09:53:22.226Z,12.97
2023-02-20T09:58:30.242Z,12.56
2023-02-20T10:03:44.967Z,13.80
2023-02-20T10:08:49.773Z,14.38
2023-02-20T10:13:59.497Z,13.94
2023-02-20T10:19:16.951Z,14.84
2023-02-20T10:24:36.283Z,13.58
2023-02-20T10:29:41.476Z,12.84
2023-02-20T10:35:02.307Z,14.68
2023-02-20T10:40:13.419Z,14.12
2023-02-20T10:45:27.509Z,20.07
2023-02-20T10:50:37.119Z,23.57
2023-02-20T10:55:44.711Z,23.20
2023-02-20T11:00:55.141Z,25.35
2023-02-20T11:06:03.598Z,26.21
2023-02-20T11:11:21.089Z,23.33
2023-02-20T11:16:27.484Z,26.99
2023-02-20T11:21:37.670Z,28.57
2023-02-20T11:26:41.396Z,29.45
2023-02-20T11:31:47.748Z,28.48
2023-02-20T11:36:55.219Z,29.50
2023-02-20T11:42:12.664Z,26.31
2023-02-20T11:47:24.993Z,20.04
2023-02-20T11:52:29.872Z,23.29
2023-02-20T11:57:35.453Z,28.82
2023-02-20T12:02:50.498Z,30.28
2023-02-20T12:07:58.591Z,26.60
2023-02-20T12:13:05.754Z,30.65
2023-02-20T12:18:20.282Z,28.09
2023-02-20T12:23:36.368Z,27.82
2023-02-20T12:28:47.515Z,27.86
2023-02-20T12:34:02.559Z,28.91
2023-02-20T12:39:17.192Z,24.20
2023-02-20T12:44:39.406Z,26.07
2023-02-20T12:49:54.931Z,26.38
2023-02-20T12:55:10.105Z,32.00
2023-02-20T13:00:23.820Z,24.88
2023-02-20T13:05:28.942Z,25.46
2023-02-20T13:10:37.106Z,26.18
2023-02-20T13:15:44.901Z,28.18
2023-02-20T13:20:51.866Z,27.55
2023-02-20T13:25:56.923Z,22.09
2023-02-20T13:31:11.433Z,21.84
2023-02-20T13:36:32.065Z,17.99
2023-02-20T13:41:58.583Z,17.22
2023-02-20T13:47:03.247Z,16.43
2023-02-20T13:52:21.504Z,16.79
2023-02-20T13:57:29.976Z,16.31
2023-02-20T14:02:41.962Z,16.04
2023-02-20T14:07:48.198Z,15.62
2023-02-20T14:12:59.491Z,16.16
2023-02-20T14:18:16.473Z,15.49
2023-02-20T14:23:25.784Z,15.65
2023-02-20T14:28:31.769Z,15.67
2023-02-20T14:33:40.662Z,18.23
2023-02-20T14:39:01.360Z,15.89
2023-02-20T14:44:07.707Z,16.72
2023-02-20T14:49:14.435Z,16.13
2023-02-20T14:54:20.055Z,16.83
2023-02-20T14:59:29.396Z,22.58
2023-02-20T15:04:32.940Z,24.82
2023-02-20T15:09:38.524Z,25.70
2023-02-20T15:14:44.920Z,27.44
2023-02-20T15:19:49.099Z,21.06
2023-02-20T15:24:55.716Z,30.20
2023-02-20T15:30:11.508Z,26.10
2023-02-20T15:35:18.131Z,23.83
2023-02-20T15:40:23.582Z,23.47
2023-02-20T15:45:29.819Z,24.41
2023-02-20T15:50:33.398Z,24.31
2023-02-20T15:55:37.149Z,23.18
2023-02-20T16:00:44.388Z,43.68
2023-02-20T16:05:48.006Z,29.86
2023-02-20T16:10:52.272Z,20.41
2023-02-20T16:15:57.875Z,22.08
2023-02-20T16:21:04.010Z,18.51
2023-02-20T16:26:12.702Z,22.71
2023-02-20T16:31:17.883Z,16.73
2023-02-20T16:36:25.028Z,17.66
2023-02-20T16:41:30.762Z,20.17
2023-02-20T16:46:38.683Z,21.93
2023-02-20T16:51:48.853Z,22.72
2023-02-20T16:56:52.335Z,20.20
2023-02-20T17:01:57.356Z,19.51
2023-02-20T17:07:03.257Z,20.14
2023-02-20T17:12:09.330Z,26.61
2023-02-20T17:17:16.825Z,21.08
2023-02-20T17:22:23.793Z,18.89
2023-02-20T17:27:29.348Z,18.89
2023-02-20T17:32:34.191Z,23.47
2023-02-20T17:37:40.480Z,21.21
2023-02-20T17:42:46.106Z,19.57
2023-02-20T17:47:50.939Z,24.50
2023-02-20T17:52:55.407Z,23.36
2023-02-20T17:57:58.852Z,27.85
2023-02-20T18:03:03.740Z,29.45
2023-02-20T18:08:07.287Z,22.72
2023-02-20T18:13:10.777Z,20.20
2023-02-20T18:18:15.725Z,31.47
2023-02-20T18:23:21.741Z,19.12
2023-02-20T18:28:25.591Z,20.95
2023-02-20T18:33:32.690Z,21.45
2023-02-20T18:38:38.781Z,21.92
2023-02-20T18:43:47.375Z,20.33
2023-02-20T18:48:52.243Z,20.49
2023-02-20T18:53:58.006Z,21.78
2023-02-20T18:59:03.718Z,21.41
2023-02-20T19:04:08.657Z,21.28
2023-02-20T19:09:13.878Z,20.49
2023-02-20T19:14:20.987Z,20.71
2023-02-20T19:19:30.418Z,20.76
2023-02-20T19:24:38.409Z,22.72
2023-02-20T19:29:45.776Z,21.76
2023-02-20T19:34:50.821Z,19.83
2023-02-20T19:39:54.957Z,19.65
2023-02-20T19:44:58.451Z,18.67
2023-02-20T19:50:06.466Z,18.60
2023-02-20T19:55:17.189Z,21.68
2023-02-20T20:00:23.130Z,22.46
2023-02-20T20:05:28.511Z,21.14
2023-02-20T20:10:32.205Z,20.34
2023-02-20T20:15:37.092Z,23.34
2023-02-20T20:20:41.865Z,20.27
2023-02-20T20:25:47.656Z,22.11
2023-02-20T20:30:51.171Z,21.10
2023-02-20T20:35:58.405Z,19.55
2023-02-20T20:41:01.963Z,20.97
2023-02-20T20:46:07.748Z,20.75
2023-02-20T20:51:16.192Z,20.61
2023-02-20T20:56:19.988Z,21.62
2023-02-20T21:01:23.606Z,21.49
2023-02-20T21:06:28.411Z,20.20
2023-02-20T21:11:34.330Z,18.47
2023-02-20T21:16:38.756Z,16.10
2023-02-20T21:21:43.674Z,16.90
2023-02-20T21:26:49.384Z,19.23
2023-02-20T21:31:52.888Z,20.02
2023-02-20T21:36:57.728Z,16.96
2023-02-20T21:42:18.315Z,16.63
2023-02-20T21:47:21.709Z,13.46
2023-02-20T21:52:36.205Z,8.02
2023-02-20T21:57:39.570Z,9.54
2023-02-20T22:02:44.058Z,25.05
2023-02-20T22:08:09.012Z,21.54
2023-02-20T22:13:34.551Z,17.32
2023-02-20T22:18:55.302Z,13.85
2023-02-20T22:24:20.397Z,13.35
2023-02-20T22:29:43.173Z,15.19
2023-02-20T22:35:12.066Z,18.64
2023-02-20T22:40:34.622Z,14.88
2023-02-20T22:45:55.428Z,18.61
2023-02-20T22:51:16.552Z,16.41
2023-02-20T22:56:40.386Z,15.82
2023-02-20T23:02:01.364Z,14.31
2023-02-20T23:07:22.479Z,15.10
2023-02-20T23:12:44.721Z,14.25
2023-02-20T23:18:05.663Z,14.53
2023-02-20T23:23:30.088Z,16.12
2023-02-20T23:28:52.648Z,15.21
2023-02-20T23:34:18.729Z,17.44
2023-02-20T23:39:41.969Z,17.71
2023-02-20T23:45:04.282Z,14.21
2023-02-20T23:50:25.454Z,9.71
2023-02-20T23:55:46.342Z,11.57
